Terminal Aerodrome Forecast
Issued by NWS

Home | Current Version | Previous Version | Text Only | Print | Product List | Glossary On
Versions: 1 2 3 4 5 6 7 8 9 10 11 12 13
000
FTUS45 KGJT 230533
TAFDRO
TAF
KDRO 230533Z 2306/2406 25008KT P6SM BKN110 BKN200 WS020/22030KT
      TEMPO 2306/2308 24015G30KT SCT110
     FM230800 24015G25KT P6SM VCSH SCT100 BKN150
     FM231000 02012G35KT P6SM BKN100
     FM231400 24010G20KT P6SM SCT100
     FM240200 33005KT P6SM SKC=

USA.gov is the U.S. government's official web portal to all federal, state and local government web resources and services.